Time;durP1;ratioP1;P1;durP2;ratioP2;P2;SDS_P1;SDS_P2;PMS_P1;PMS_P2;Temp;Humidity;BMP_temperature;BMP_pressure;BME280_temperature;BME280_humidity;BME280_pressure;Samples;Min_cycle;Max_cycle;Signal;HPM_P1;HPM_P2
2021/01/26 00:00:43;;;;;;;60.23;41.47;;;;;;;3.36;66.07;100394.22;5121127;28;20445;-72
2021/01/26 00:03:08;;;;;;;41.50;29.77;;;;;;;3.41;65.97;100405.56;5120966;28;20172;-73
2021/01/26 00:05:34;;;;;;;41.37;29.70;;;;;;;3.58;64.79;100400.09;5121638;28;20203;-73
2021/01/26 00:07:59;;;;;;;39.63;30.43;;;;;;;3.34;65.23;100401.00;5121035;28;20175;-74
2021/01/26 00:10:24;;;;;;;39.20;30.03;;;;;;;3.44;64.49;100399.66;5120902;28;20251;-74
2021/01/26 00:12:50;;;;;;;38.77;27.60;;;;;;;3.60;65.01;100398.41;5121613;28;20163;-75
2021/01/26 00:15:15;;;;;;;39.90;28.80;;;;;;;3.60;64.27;100406.16;5120779;28;20615;-74
2021/01/26 00:17:41;;;;;;;38.13;28.30;;;;;;;3.63;64.14;100401.97;5120837;28;20168;-72
2021/01/26 00:20:08;;;;;;;35.87;28.70;;;;;;;3.63;63.99;100404.56;5121185;28;20182;-75
2021/01/26 00:22:34;;;;;;;37.50;28.40;;;;;;;3.70;63.18;100405.63;5120846;28;20212;-75
2021/01/26 00:24:59;;;;;;;36.60;28.13;;;;;;;3.69;64.10;100403.88;5120149;28;20457;-73
2021/01/26 00:27:25;;;;;;;35.67;27.93;;;;;;;3.77;64.00;100404.13;5125506;28;20167;-76
2021/01/26 00:29:50;;;;;;;38.03;30.73;;;;;;;3.49;63.99;100406.69;5123656;28;20172;-74
2021/01/26 00:32:16;;;;;;;40.23;28.70;;;;;;;3.63;64.21;100404.56;5120834;28;20199;-73
2021/01/26 00:34:41;;;;;;;42.40;27.50;;;;;;;3.52;64.02;100406.78;5120920;28;20212;-74
2021/01/26 00:37:06;;;;;;;36.03;27.23;;;;;;;3.29;64.14;100410.28;5120464;28;20254;-74
2021/01/26 00:39:32;;;;;;;46.63;35.13;;;;;;;3.58;63.77;100405.25;5120435;27;20545;-72
2021/01/26 00:41:57;;;;;;;40.90;30.10;;;;;;;3.50;64.17;100407.56;5120966;28;20212;-72
2021/01/26 00:44:22;;;;;;;37.40;28.80;;;;;;;3.78;63.13;100409.31;5120308;28;20207;-71
2021/01/26 00:46:48;;;;;;;38.47;28.33;;;;;;;3.75;64.10;100414.41;5120188;28;20171;-72
2021/01/26 00:49:13;;;;;;;40.50;30.07;;;;;;;3.63;63.51;100417.44;5121113;28;20229;-71
2021/01/26 00:51:38;;;;;;;39.70;28.60;;;;;;;3.82;63.20;100420.63;5120281;28;20179;-72
2021/01/26 00:54:04;;;;;;;36.63;28.60;;;;;;;3.45;63.50;100420.31;5120145;28;20349;-71
2021/01/26 00:56:30;;;;;;;39.00;28.63;;;;;;;3.78;63.69;100416.19;5120498;28;20168;-71
2021/01/26 00:58:55;;;;;;;37.97;30.10;;;;;;;3.63;63.25;100421.75;5119392;28;20176;-71
2021/01/26 01:01:21;;;;;;;41.30;30.70;;;;;;;3.71;63.42;100417.69;5119858;28;20413;-71
2021/01/26 01:03:48;;;;;;;39.57;30.33;;;;;;;3.48;64.54;100419.53;5120217;28;20538;-72
2021/01/26 01:06:13;;;;;;;37.03;29.10;;;;;;;3.68;63.64;100418.47;5119205;28;20182;-71
2021/01/26 01:08:39;;;;;;;39.20;28.83;;;;;;;3.60;64.67;100419.94;5119807;28;20417;-71
2021/01/26 01:11:04;;;;;;;39.47;28.27;;;;;;;3.75;64.63;100414.41;5120183;28;20199;-71
2021/01/26 01:13:29;;;;;;;40.00;29.33;;;;;;;3.60;63.78;100412.19;5119654;28;20176;-72
2021/01/26 01:15:55;;;;;;;36.57;29.40;;;;;;;3.71;63.65;100417.69;5121119;27;20254;-73
2021/01/26 01:18:20;;;;;;;35.77;28.37;;;;;;;3.63;62.88;100421.75;5120653;28;20433;-71
2021/01/26 01:20:45;;;;;;;35.80;27.97;;;;;;;3.83;63.48;100415.50;5119611;28;20254;-73
2021/01/26 01:23:11;;;;;;;37.37;28.73;;;;;;;3.56;64.69;100418.09;5119595;28;20183;-74
2021/01/26 01:25:36;;;;;;;38.87;28.90;;;;;;;3.56;64.90;100420.66;5120155;28;20520;-72
2021/01/26 01:28:02;;;;;;;41.00;29.70;;;;;;;3.47;64.50;100428.94;5119586;28;20176;-73
2021/01/26 01:30:30;;;;;;;41.20;29.80;;;;;;;3.31;65.20;100422.41;5119819;28;20225;-72
2021/01/26 01:32:56;;;;;;;43.00;28.93;;;;;;;3.15;64.92;100428.75;5120020;28;20576;-73
2021/01/26 01:35:22;;;;;;;35.43;28.07;;;;;;;3.26;65.90;100423.97;5119276;28;20453;-71
2021/01/26 01:37:49;;;;;;;37.70;27.57;;;;;;;3.39;64.50;100420.09;5119280;28;20452;-70
2021/01/26 01:40:19;;;;;;;36.47;28.50;;;;;;;3.23;65.68;100425.56;5119656;28;20417;-70
2021/01/26 01:42:46;;;;;;;35.63;27.10;;;;;;;3.15;66.04;100421.03;5119353;28;20417;-71
2021/01/26 01:45:12;;;;;;;36.80;27.70;;;;;;;3.00;66.18;100416.22;5119088;28;20559;-70
2021/01/26 01:47:42;;;;;;;38.67;28.53;;;;;;;3.28;65.54;100426.59;5119475;28;20453;-69
2021/01/26 01:50:13;;;;;;;40.57;29.10;;;;;;;3.34;65.57;100426.78;5118906;28;20213;-69
2021/01/26 01:52:39;;;;;;;15.40;11.23;;;;;;;8.47;85.57;100399.03;5119025;28;20428;-72
2021/01/26 01:55:18;;;;;;;29.63;20.87;;;;;;;13.23;55.76;100383.09;5118400;28;20787;-71
2021/01/26 01:57:51;;;;;;;31.77;26.40;;;;;;;13.12;48.68;100380.53;5119000;28;20182;-72
2021/01/26 02:00:18;;;;;;;28.60;24.90;;;;;;;8.05;49.81;100401.94;5117772;28;20543;-70
2021/01/26 02:02:48;;;;;;;24.90;21.67;;;;;;;6.20;55.19;100414.13;5118273;28;20707;-69
2021/01/26 02:05:14;;;;;;;26.70;22.70;;;;;;;5.03;58.67;100417.25;5118130;28;20498;-70
2021/01/26 02:07:40;;;;;;;28.60;24.27;;;;;;;4.80;58.97;100416.63;5118870;28;20416;-71
2021/01/26 02:10:06;;;;;;;28.07;24.10;;;;;;;4.43;62.12;100415.59;5119156;28;20484;-70
2021/01/26 02:12:32;;;;;;;36.90;24.60;;;;;;;3.91;62.80;100425.19;5118786;28;20168;-69
2021/01/26 02:14:58;;;;;;;31.50;25.77;;;;;;;3.75;64.23;100435.03;5118631;28;20461;-68
2021/01/26 02:17:42;;;;;;;33.70;25.40;;;;;;;3.37;64.16;100440.66;5118492;28;20250;-69
2021/01/26 02:20:26;;;;;;;29.80;25.10;;;;;;;3.49;64.86;100447.94;5118742;28;20663;-71
2021/01/26 02:23:16;;;;;;;34.43;26.70;;;;;;;2.72;66.36;100455.53;5117985;28;20414;-69
2021/01/26 02:26:03;;;;;;;34.70;28.00;;;;;;;2.99;66.19;100447.03;5118634;28;20491;-69
2021/01/26 02:28:39;;;;;;;38.63;27.50;;;;;;;3.13;65.75;100453.56;5119450;28;20412;-68
2021/01/26 02:31:27;;;;;;;37.20;27.87;;;;;;;3.11;67.03;100459.47;5118116;28;20413;-69
2021/01/26 02:34:20;;;;;;;37.30;27.93;;;;;;;3.54;64.59;100456.69;5118714;28;20527;-69
2021/01/26 02:37:07;;;;;;;36.40;28.10;;;;;;;3.54;64.38;100455.81;5118498;28;20840;-72
2021/01/26 02:40:10;;;;;;;36.40;28.87;;;;;;;3.00;65.13;100457.41;5117771;28;20693;-72
2021/01/26 02:43:10;;;;;;;34.13;27.60;;;;;;;3.09;65.36;100462.00;5067674;28;20650;-71
2021/01/26 02:45:41;;;;;;;41.87;29.63;;;;;;;2.91;65.90;100462.22;5117671;28;20545;-72
2021/01/26 02:48:23;;;;;;;40.53;30.30;;;;;;;3.18;64.38;100474.31;5117857;28;20409;-70
2021/01/26 02:51:34;;;;;;;36.33;27.70;;;;;;;3.33;64.34;100466.28;5118418;28;20424;-71
2021/01/26 02:54:30;;;;;;;42.73;30.20;;;;;;;3.11;64.82;100472.34;5059470;28;20535;-71
2021/01/26 02:57:17;;;;;;;39.70;30.90;;;;;;;3.10;67.47;100475.75;5107829;28;20413;-70
2021/01/26 02:59:49;;;;;;;38.93;29.77;;;;;;;3.29;65.61;100479.84;5117589;28;20822;-71
2021/01/26 03:02:49;;;;;;;39.13;29.27;;;;;;;3.31;67.24;100486.81;5118422;28;20420;-70
2021/01/26 03:05:21;;;;;;;40.87;30.17;;;;;;;3.37;65.52;100479.31;5117591;28;20524;-71
2021/01/26 03:07:55;;;;;;;33.60;26.90;;;;;;;3.25;65.79;100484.03;5118340;28;20413;-70
2021/01/26 03:10:21;;;;;;;40.97;29.80;;;;;;;3.01;65.07;100484.03;5117573;28;20424;-70
2021/01/26 03:12:54;;;;;;;39.57;30.10;;;;;;;3.85;62.97;100482.59;5121469;28;20475;-70
2021/01/26 03:15:27;;;;;;;38.77;30.97;;;;;;;3.54;63.90;100491.88;5121301;28;20472;-71
2021/01/26 03:17:57;;;;;;;35.90;27.67;;;;;;;3.57;64.08;100486.81;5121471;28;20413;-71
2021/01/26 03:20:40;;;;;;;36.57;29.17;;;;;;;4.04;63.09;100486.66;5121310;28;20717;-70
2021/01/26 03:23:10;;;;;;;36.63;29.20;;;;;;;3.99;62.28;100499.41;5121342;28;20408;-70
2021/01/26 03:25:38;;;;;;;35.83;28.00;;;;;;;3.34;64.46;100492.09;5121186;28;20499;-70
2021/01/26 03:28:06;;;;;;;38.40;28.67;;;;;;;3.58;64.00;100495.44;5121192;28;20677;-70
2021/01/26 03:30:34;;;;;;;40.03;30.00;;;;;;;3.72;63.55;100494.19;5121482;28;20462;-70
2021/01/26 03:33:03;;;;;;;41.33;29.97;;;;;;;3.70;63.92;100496.72;5121849;28;20440;-72
2021/01/26 03:35:28;;;;;;;39.07;31.50;;;;;;;3.52;63.97;100498.72;5121140;28;20496;-70
2021/01/26 03:37:57;;;;;;;37.53;29.03;;;;;;;3.56;64.95;100499.66;5122092;28;20507;-70
2021/01/26 03:40:23;;;;;;;38.00;30.60;;;;;;;3.47;63.93;100503.69;5120989;28;20525;-70
2021/01/26 03:42:48;;;;;;;34.33;28.30;;;;;;;3.71;63.63;100510.50;5121723;28;20466;-70
2021/01/26 03:45:14;;;;;;;38.47;30.57;;;;;;;3.24;64.63;100508.03;5121948;28;20191;-70
2021/01/26 03:47:48;;;;;;;38.23;29.80;;;;;;;3.33;64.03;100504.91;5120872;28;20267;-70
2021/01/26 03:50:45;;;;;;;37.00;29.00;;;;;;;3.16;65.40;100512.03;5120923;28;20182;-71
2021/01/26 03:53:28;;;;;;;36.70;29.93;;;;;;;3.65;63.88;100513.75;5098326;28;20436;-70
2021/01/26 03:56:01;;;;;;;43.30;30.17;;;;;;;3.23;65.39;100514.00;5120821;28;20409;-70
2021/01/26 03:58:57;;;;;;;37.53;28.43;;;;;;;3.34;65.31;100520.44;5121461;28;20435;-70
2021/01/26 04:01:34;;;;;;;39.37;30.07;;;;;;;3.63;63.96;100517.97;5121334;28;20390;-70
2021/01/26 04:04:06;;;;;;;36.13;29.80;;;;;;;3.82;63.75;100516.91;5120692;28;20457;-70
2021/01/26 04:06:39;;;;;;;39.43;29.27;;;;;;;3.70;63.83;100517.34;5120790;28;20897;-70
2021/01/26 04:09:08;;;;;;;36.17;29.63;;;;;;;3.53;64.20;100523.63;5120586;28;20507;-71
2021/01/26 04:11:42;;;;;;;40.00;31.37;;;;;;;3.75;63.86;100516.63;5120349;28;20439;-71
2021/01/26 04:14:20;;;;;;;41.40;32.80;;;;;;;3.76;63.56;100518.38;5120249;28;20556;-71
2021/01/26 04:16:53;;;;;;;46.00;30.87;;;;;;;3.68;63.94;100520.69;5120242;28;20811;-71
2021/01/26 04:19:27;;;;;;;44.43;32.30;;;;;;;3.39;64.85;100536.03;5120213;28;20420;-71
2021/01/26 04:21:52;;;;;;;42.27;33.57;;;;;;;3.85;63.55;100540.19;5119729;28;20408;-69
2021/01/26 04:24:18;;;;;;;41.97;31.30;;;;;;;3.55;64.93;100545.19;5120940;28;20930;-70
2021/01/26 04:26:46;;;;;;;41.70;32.10;;;;;;;3.35;65.55;100537.63;5120337;28;20175;-71
2021/01/26 04:29:11;;;;;;;36.03;29.90;;;;;;;3.61;64.51;100549.69;5121183;28;20409;-71
2021/01/26 04:31:37;;;;;;;55.63;32.60;;;;;;;3.53;64.94;100539.09;5121177;28;20417;-71
2021/01/26 04:34:03;;;;;;;37.90;30.10;;;;;;;3.62;64.26;100525.66;5120507;28;20200;-70
2021/01/26 04:36:28;;;;;;;40.70;31.87;;;;;;;3.80;63.83;100527.97;5121250;28;20164;-70
2021/01/26 04:38:54;;;;;;;41.00;29.60;;;;;;;3.77;64.60;100525.31;5120471;27;20424;-70
2021/01/26 04:41:40;;;;;;;37.43;30.00;;;;;;;3.63;64.39;100541.19;5120303;28;20415;-70
2021/01/26 04:44:42;;;;;;;38.53;30.30;;;;;;;3.73;64.01;100539.78;5120362;28;20259;-71
2021/01/26 04:47:19;;;;;;;35.90;29.83;;;;;;;3.83;64.57;100548.69;5120572;28;20461;-70
2021/01/26 04:49:58;;;;;;;38.63;29.60;;;;;;;3.63;64.31;100555.78;5119674;28;20443;-71
2021/01/26 04:52:53;;;;;;;39.00;28.80;;;;;;;3.56;65.04;100559.84;5120531;28;20690;-70
2021/01/26 04:55:45;;;;;;;38.20;30.23;;;;;;;3.71;64.47;100564.66;5120371;28;20752;-70
2021/01/26 04:58:39;;;;;;;37.57;29.57;;;;;;;4.04;63.72;100564.03;5119774;28;20413;-69
2021/01/26 05:01:20;;;;;;;39.10;31.63;;;;;;;4.12;63.52;100561.72;5119325;28;20421;-71
2021/01/26 05:03:56;;;;;;;41.17;30.20;;;;;;;4.17;62.61;100565.34;5120219;28;20417;-70
2021/01/26 05:06:26;;;;;;;37.87;28.90;;;;;;;3.92;63.46;100561.91;5119461;28;20491;-69
2021/01/26 05:08:53;;;;;;;41.23;32.50;;;;;;;3.91;64.18;100569.59;5119311;28;20430;-70
2021/01/26 05:11:23;;;;;;;43.30;31.13;;;;;;;3.80;63.53;100577.88;5101919;28;20772;-70
2021/01/26 05:13:53;;;;;;;39.87;31.07;;;;;;;3.51;64.51;100585.44;5119673;28;20826;-70
2021/01/26 05:16:50;;;;;;;41.27;31.80;;;;;;;3.67;64.21;100579.13;5119127;28;20658;-72
2021/01/26 05:19:19;;;;;;;38.97;31.13;;;;;;;4.05;63.03;100581.28;5120115;28;20866;-69
2021/01/26 05:21:56;;;;;;;44.37;31.67;;;;;;;3.82;64.33;100585.66;5118702;28;20413;-72
2021/01/26 05:24:27;;;;;;;40.90;31.40;;;;;;;3.90;64.17;100579.06;5118889;28;20452;-71
2021/01/26 05:26:53;;;;;;;39.30;31.03;;;;;;;3.77;63.85;100585.47;5118898;28;20405;-71
2021/01/26 05:29:18;;;;;;;39.60;30.43;;;;;;;3.84;64.11;100584.88;5119601;28;20464;-71
2021/01/26 05:31:46;;;;;;;37.27;30.37;;;;;;;3.60;65.46;100587.47;5119914;28;20462;-71
2021/01/26 05:34:13;;;;;;;39.17;31.10;;;;;;;3.57;65.12;100589.94;5117963;28;20201;-72
2021/01/26 05:36:42;;;;;;;39.37;30.80;;;;;;;3.59;64.45;100585.72;5118781;28;20700;-72
2021/01/26 05:39:14;;;;;;;38.07;30.13;;;;;;;3.60;65.36;100591.75;5119087;28;20398;-71
2021/01/26 05:41:39;;;;;;;40.10;32.67;;;;;;;3.46;65.35;100596.41;5119265;28;21075;-71
2021/01/26 05:44:05;;;;;;;41.10;31.07;;;;;;;3.23;65.99;100600.72;5119262;28;20552;-71
2021/01/26 05:46:38;;;;;;;40.57;31.03;;;;;;;3.38;65.59;100611.59;5119174;28;20242;-70
2021/01/26 05:49:04;;;;;;;43.40;32.87;;;;;;;3.50;64.80;100606.00;5118453;28;20181;-70
2021/01/26 05:51:29;;;;;;;39.60;30.30;;;;;;;3.28;65.90;100615.53;5119031;28;20493;-70
2021/01/26 05:54:01;;;;;;;43.77;33.43;;;;;;;3.36;65.62;100616.69;5119677;28;20613;-70
2021/01/26 05:56:28;;;;;;;42.53;31.93;;;;;;;3.30;65.72;100628.47;5118590;28;20259;-71
2021/01/26 05:58:53;;;;;;;44.07;33.90;;;;;;;3.12;66.66;100626.09;5118980;28;20401;-70
2021/01/26 06:01:21;;;;;;;48.23;35.07;;;;;;;3.18;66.29;100634.03;5118640;28;20414;-71
2021/01/26 06:04:06;;;;;;;43.97;33.30;;;;;;;2.84;67.25;100641.34;5118082;28;20167;-71
2021/01/26 06:06:31;;;;;;;46.43;33.87;;;;;;;2.86;68.66;100641.41;5118966;28;20501;-70
2021/01/26 06:08:57;;;;;;;48.17;35.17;;;;;;;3.18;67.36;100647.81;5118058;28;20440;-70
2021/01/26 06:11:28;;;;;;;44.90;34.23;;;;;;;3.03;67.45;100647.19;5118695;28;20163;-69
2021/01/26 06:14:08;;;;;;;44.80;33.77;;;;;;;3.11;67.44;100653.56;5118994;28;20461;-70
2021/01/26 06:16:33;;;;;;;50.03;35.07;;;;;;;3.06;66.89;100651.59;5118805;28;20413;-70
2021/01/26 06:19:01;;;;;;;46.43;34.97;;;;;;;3.09;67.11;100652.59;5118943;28;20497;-70
2021/01/26 06:21:29;;;;;;;48.93;34.47;;;;;;;2.74;67.90;100652.09;5118677;28;20176;-69
2021/01/26 06:23:57;;;;;;;46.10;34.43;;;;;;;2.89;67.37;100649.25;5119020;28;20421;-70
2021/01/26 06:26:25;;;;;;;49.60;36.90;;;;;;;3.07;66.58;100649.06;5118748;28;20433;-71
2021/01/26 06:29:08;;;;;;;52.27;37.63;;;;;;;3.22;66.89;100651.38;5118151;28;20508;-70
2021/01/26 06:31:53;;;;;;;56.00;37.27;;;;;;;2.87;67.76;100650.91;5101067;28;20822;-71
2021/01/26 06:34:49;;;;;;;51.17;37.23;;;;;;;3.17;66.73;100645.16;5117873;28;20413;-70
2021/01/26 06:37:24;;;;;;;52.63;37.23;;;;;;;2.79;68.09;100653.16;5118002;28;20409;-71
2021/01/26 06:40:05;;;;;;;50.83;37.70;;;;;;;2.88;67.77;100649.19;5117679;28;20454;-70
2021/01/26 06:42:34;;;;;;;49.40;35.07;;;;;;;2.93;67.39;100650.25;5117863;28;20405;-70
2021/01/26 06:45:35;;;;;;;50.60;37.47;;;;;;;3.06;67.07;100657.63;5118745;28;20484;-72
2021/01/26 06:48:33;;;;;;;48.13;37.37;;;;;;;3.02;67.49;100672.09;5106599;28;20409;-71
2021/01/26 06:51:07;;;;;;;55.83;38.03;;;;;;;2.84;67.52;100674.81;5122357;28;20720;-71
2021/01/26 06:54:14;;;;;;;50.90;38.00;;;;;;;2.86;67.51;100682.59;5122397;28;20454;-71
2021/01/26 06:57:17;;;;;;;58.20;40.27;;;;;;;3.07;67.38;100695.44;5122575;27;20405;-71
2021/01/26 06:59:58;;;;;;;53.17;38.33;;;;;;;3.31;66.44;100700.66;5121694;28;20405;-71
2021/01/26 07:02:24;;;;;;;50.60;37.70;;;;;;;3.06;67.03;100698.84;5121617;28;20690;-71
2021/01/26 07:05:09;;;;;;;55.60;37.73;;;;;;;2.76;68.41;100709.69;5121429;28;20445;-70
2021/01/26 07:08:11;;;;;;;53.00;37.90;;;;;;;2.77;68.45;100710.53;5121518;28;20250;-71
2021/01/26 07:10:59;;;;;;;56.00;38.17;;;;;;;2.49;69.18;100727.41;5121731;28;20400;-71
2021/01/26 07:13:46;;;;;;;51.47;39.13;;;;;;;2.86;68.03;100729.81;5121694;28;20409;-70
2021/01/26 07:16:18;;;;;;;55.67;39.30;;;;;;;2.90;67.45;100735.09;5121517;28;20464;-70
2021/01/26 07:18:57;;;;;;;54.00;38.03;;;;;;;2.69;68.40;100744.59;5122203;28;20409;-71
2021/01/26 07:21:25;;;;;;;50.40;36.63;;;;;;;3.12;67.38;100744.56;5122080;28;20677;-70
2021/01/26 07:24:05;;;;;;;53.93;38.63;;;;;;;3.15;66.88;100744.69;5122025;28;20424;-71
2021/01/26 07:26:34;;;;;;;48.57;36.97;;;;;;;2.95;66.86;100755.06;5121222;28;20404;-72
2021/01/26 07:29:24;;;;;;;51.03;36.83;;;;;;;2.83;67.62;100752.00;5120628;28;20588;-71
2021/01/26 07:32:05;;;;;;;54.83;36.63;;;;;;;2.59;68.04;100769.88;5121245;28;20412;-71
2021/01/26 07:34:59;;;;;;;51.93;37.40;;;;;;;3.12;66.42;100765.19;5120883;28;20405;-71
2021/01/26 07:37:35;;;;;;;47.77;36.60;;;;;;;2.93;66.93;100761.84;5119012;28;20432;-70
2021/01/26 07:40:03;;;;;;;49.00;36.33;;;;;;;3.20;66.67;100761.22;5120622;28;20409;-71
2021/01/26 07:42:34;;;;;;;52.90;37.73;;;;;;;2.98;67.31;100765.50;5121519;28;20408;-71
2021/01/26 07:45:07;;;;;;;52.87;38.17;;;;;;;3.14;67.11;100758.38;5120756;28;20460;-70
2021/01/26 07:47:36;;;;;;;46.93;34.90;;;;;;;3.15;66.60;100770.44;5121589;28;20984;-70
2021/01/26 07:50:07;;;;;;;82.60;63.80;;;;;;;3.32;65.97;100769.41;5120805;28;20871;-71
2021/01/26 07:52:34;;;;;;;61.00;41.03;;;;;;;3.41;66.06;100773.16;5120682;28;20475;-71
2021/01/26 07:55:14;;;;;;;49.83;37.60;;;;;;;3.33;66.41;100772.91;5120762;28;20420;-71
2021/01/26 07:57:44;;;;;;;52.93;36.80;;;;;;;3.41;65.85;100783.47;5119760;28;20488;-71
2021/01/26 08:00:12;;;;;;;51.50;38.83;;;;;;;3.51;65.34;100777.88;5121042;28;20409;-71
2021/01/26 08:02:41;;;;;;;51.13;36.00;;;;;;;3.74;64.96;100783.06;5121462;28;20884;-71
2021/01/26 08:05:17;;;;;;;48.63;36.47;;;;;;;3.38;65.87;100789.38;5120272;28;20449;-70
2021/01/26 08:07:43;;;;;;;40.43;32.67;;;;;;;3.34;66.98;100790.09;5121199;28;20412;-72
2021/01/26 08:10:18;;;;;;;46.80;35.90;;;;;;;3.53;66.13;100787.44;5120223;28;20474;-72
2021/01/26 08:12:45;;;;;;;46.30;35.50;;;;;;;3.65;65.65;100787.03;5120849;28;20492;-71
2021/01/26 08:15:27;;;;;;;44.80;35.53;;;;;;;3.70;66.43;100798.38;5120047;28;20749;-71
2021/01/26 08:17:53;;;;;;;46.70;35.27;;;;;;;3.33;66.64;100801.25;5120310;28;20409;-71
2021/01/26 08:20:31;;;;;;;47.00;34.53;;;;;;;3.61;67.04;100810.91;5120177;28;20413;-71
2021/01/26 08:23:00;;;;;;;44.00;34.80;;;;;;;3.57;66.89;100813.31;5120221;28;20462;-71
2021/01/26 08:25:28;;;;;;;43.47;33.77;;;;;;;3.85;66.25;100823.00;5121253;27;20457;-72
2021/01/26 08:27:59;;;;;;;45.83;34.57;;;;;;;3.95;64.68;100819.06;5121532;28;20409;-70
2021/01/26 08:30:47;;;;;;;40.63;33.20;;;;;;;3.65;65.58;100817.97;5121270;28;20417;-70
2021/01/26 08:33:20;;;;;;;41.23;33.70;;;;;;;3.69;66.15;100821.53;5121661;28;20411;-71
2021/01/26 08:36:13;;;;;;;47.20;34.17;;;;;;;4.91;62.81;100818.19;5120607;28;20803;-71
2021/01/26 08:38:51;;;;;;;43.37;31.03;;;;;;;6.12;57.99;100807.34;5120381;28;20524;-71
2021/01/26 08:41:45;;;;;;;35.97;31.33;;;;;;;7.38;54.36;100803.72;5119746;28;20405;-70
2021/01/26 08:44:33;;;;;;;30.13;26.70;;;;;;;7.48;53.59;100809.97;5119999;28;20453;-71
2021/01/26 08:46:59;;;;;;;32.33;28.33;;;;;;;7.99;52.27;100809.38;5120573;28;20413;-71
2021/01/26 08:49:30;;;;;;;32.47;28.93;;;;;;;8.24;51.77;100821.19;5120732;28;20463;-71
2021/01/26 08:52:22;;;;;;;30.87;26.80;;;;;;;8.13;51.47;100826.97;5119527;28;20171;-70
2021/01/26 08:54:49;;;;;;;29.87;26.80;;;;;;;9.43;48.44;100825.03;5120549;28;20849;-71
2021/01/26 08:57:27;;;;;;;29.50;26.10;;;;;;;7.71;52.95;100833.84;5120146;28;20372;-70
2021/01/26 09:00:19;;;;;;;29.90;26.93;;;;;;;6.90;55.51;100833.63;5119988;28;20409;-71
2021/01/26 09:02:47;;;;;;;31.67;28.27;;;;;;;6.28;57.04;100846.59;5117634;28;20392;-70
2021/01/26 09:05:35;;;;;;;84.97;60.13;;;;;;;8.06;53.31;100838.97;5119253;28;20478;-71
2021/01/26 09:08:07;;;;;;;32.20;28.77;;;;;;;8.87;50.53;100836.25;5119785;28;20690;-70
2021/01/26 09:10:37;;;;;;;30.50;27.30;;;;;;;9.33;49.34;100846.59;5119887;28;20527;-71
2021/01/26 09:13:28;;;;;;;29.20;26.03;;;;;;;9.00;49.68;100848.63;5119025;28;20418;-70
2021/01/26 09:16:00;;;;;;;30.77;27.70;;;;;;;8.34;50.49;100858.59;5119855;28;20413;-72
2021/01/26 09:18:26;;;;;;;29.50;26.47;;;;;;;7.89;52.46;100864.56;5119609;27;20474;-70
2021/01/26 09:20:59;;;;;;;33.20;29.80;;;;;;;6.84;55.48;100872.34;5118674;28;20413;-71
2021/01/26 09:23:25;;;;;;;34.20;30.33;;;;;;;6.37;57.76;100878.84;5118975;28;20404;-72
2021/01/26 09:25:50;;;;;;;35.50;30.73;;;;;;;6.41;57.75;100884.97;5119329;28;20456;-70
2021/01/26 09:28:18;;;;;;;34.87;31.17;;;;;;;6.23;58.68;100885.31;5118765;27;20821;-71
2021/01/26 09:30:46;;;;;;;35.30;30.17;;;;;;;6.23;57.69;100893.09;5118054;28;20172;-70
2021/01/26 09:33:23;;;;;;;36.27;30.97;;;;;;;5.52;60.44;100886.56;5118484;28;20638;-71
2021/01/26 09:35:54;;;;;;;35.20;30.80;;;;;;;4.99;63.90;100906.28;5119287;28;20413;-69
2021/01/26 09:38:33;;;;;;;40.37;32.27;;;;;;;5.11;62.71;100905.84;5119029;28;20413;-70
2021/01/26 09:41:13;;;;;;;35.47;30.87;;;;;;;5.13;63.92;100902.50;5119158;28;20443;-71
2021/01/26 09:43:40;;;;;;;39.33;30.97;;;;;;;4.94;62.74;100906.16;5119495;28;20439;-71
2021/01/26 09:46:32;;;;;;;39.27;30.90;;;;;;;5.00;63.31;100903.75;5118908;28;20468;-70
2021/01/26 09:49:13;;;;;;;37.30;31.73;;;;;;;5.24;62.07;100897.69;5118577;28;20803;-71
2021/01/26 09:51:41;;;;;;;38.00;31.30;;;;;;;5.16;62.20;100901.72;5118921;28;20847;-70
2021/01/26 09:54:30;;;;;;;36.80;30.07;;;;;;;4.96;64.40;100903.63;5118254;28;20444;-70
2021/01/26 09:56:57;;;;;;;39.13;32.40;;;;;;;5.48;61.65;100899.31;5118880;28;20409;-69
2021/01/26 09:59:23;;;;;;;41.97;32.60;;;;;;;5.62;61.58;100897.22;5118330;28;20409;-69
2021/01/26 10:01:49;;;;;;;36.97;29.93;;;;;;;5.37;61.67;100897.28;5118625;28;20413;-70
2021/01/26 10:04:16;;;;;;;34.33;28.60;;;;;;;5.38;62.10;100893.84;5118652;28;20199;-71
2021/01/26 10:06:41;;;;;;;37.23;29.27;;;;;;;5.91;60.45;100903.28;5118714;28;20419;-70
2021/01/26 10:09:24;;;;;;;37.20;30.33;;;;;;;7.17;56.62;100897.41;5118954;28;20524;-70
2021/01/26 10:11:51;;;;;;;36.10;32.10;;;;;;;6.13;59.53;100911.75;5118664;28;20228;-71
2021/01/26 10:14:22;;;;;;;36.27;29.93;;;;;;;5.94;60.04;100915.44;5118595;28;20469;-70
2021/01/26 10:16:49;;;;;;;36.20;30.60;;;;;;;6.87;57.41;100912.19;5118597;28;20417;-72
2021/01/26 10:19:20;;;;;;;35.00;29.77;;;;;;;7.47;56.16;100914.56;5118048;28;20427;-71
2021/01/26 10:21:46;;;;;;;39.03;32.60;;;;;;;6.64;57.84;100915.84;5118487;28;20417;-72
2021/01/26 10:24:31;;;;;;;40.30;32.53;;;;;;;6.74;57.38;100921.31;5117871;28;20459;-71
2021/01/26 10:27:20;;;;;;;35.60;30.57;;;;;;;6.23;59.67;100929.31;5118128;28;20172;-70
2021/01/26 10:29:46;;;;;;;32.13;28.13;;;;;;;5.96;60.50;100925.00;5118549;28;20438;-69
2021/01/26 10:32:14;;;;;;;35.47;29.57;;;;;;;5.90;60.64;100927.44;5118623;28;20429;-70
2021/01/26 10:34:41;;;;;;;33.77;29.47;;;;;;;6.16;59.93;100927.41;5120046;28;20655;-70
2021/01/26 10:37:30;;;;;;;34.80;31.00;;;;;;;7.12;57.20;100924.91;5120110;28;20670;-69
2021/01/26 10:40:31;;;;;;;30.73;27.10;;;;;;;6.91;58.33;100926.09;5118445;28;20428;-69
2021/01/26 10:43:05;;;;;;;32.50;26.77;;;;;;;7.36;56.31;100919.50;5118569;28;20412;-70
2021/01/26 10:45:43;;;;;;;32.33;27.97;;;;;;;7.75;57.49;100923.91;5117590;28;20870;-69
2021/01/26 10:48:21;;;;;;;34.80;30.00;;;;;;;8.29;53.49;100917.34;5118404;28;20451;-70
2021/01/26 10:50:47;;;;;;;30.63;26.10;;;;;;;7.57;55.38;100922.63;5118312;28;20409;-70
2021/01/26 10:53:33;;;;;;;42.37;35.23;;;;;;;8.60;52.12;100918.03;5118224;28;20440;-70
2021/01/26 10:55:59;;;;;;;49.87;39.07;;;;;;;8.95;50.85;100915.28;5118306;28;20173;-70
2021/01/26 10:58:24;;;;;;;31.60;27.80;;;;;;;9.53;49.63;100910.22;5118390;28;20496;-69
2021/01/26 11:00:51;;;;;;;28.87;25.90;;;;;;;9.05;50.91;100914.59;5117448;28;20533;-70
2021/01/26 11:03:17;;;;;;;27.93;25.10;;;;;;;8.07;52.23;100911.69;5118309;28;20432;-71
2021/01/26 11:05:42;;;;;;;29.27;26.27;;;;;;;8.82;51.11;100915.88;5118344;28;20445;-70
2021/01/26 11:08:07;;;;;;;27.70;24.00;;;;;;;8.77;50.55;100918.41;5118184;28;20537;-71
2021/01/26 11:10:35;;;;;;;26.70;23.97;;;;;;;8.26;52.50;100925.09;5118117;28;20176;-74
2021/01/26 11:13:00;;;;;;;27.73;24.83;;;;;;;7.99;53.84;100930.53;5118712;28;20254;-74
2021/01/26 11:15:27;;;;;;;26.60;23.83;;;;;;;8.08;52.63;100929.03;5117904;28;20536;-73
2021/01/26 11:17:53;;;;;;;26.87;23.93;;;;;;;7.79;54.24;100936.13;5117906;28;20171;-69
2021/01/26 11:20:19;;;;;;;27.30;22.30;;;;;;;8.62;51.92;100929.38;5118468;28;20462;-71
2021/01/26 11:22:44;;;;;;;27.40;24.60;;;;;;;9.83;48.76;100934.16;5118088;28;20179;-69
2021/01/26 11:25:10;;;;;;;27.03;24.23;;;;;;;8.88;51.17;100939.41;5117997;28;20454;-69
2021/01/26 11:27:36;;;;;;;26.27;23.53;;;;;;;8.99;50.79;100937.88;5118451;28;20266;-69
2021/01/26 11:30:04;;;;;;;28.03;23.20;;;;;;;8.80;51.45;100941.84;5117894;28;20240;-69
2021/01/26 11:32:30;;;;;;;26.77;24.00;;;;;;;9.29;50.40;100933.22;5119815;28;20254;-69
2021/01/26 11:34:55;;;;;;;23.83;21.37;;;;;;;8.48;51.72;100948.97;5121673;28;20373;-69
2021/01/26 11:37:21;;;;;;;22.03;19.83;;;;;;;9.28;50.42;100934.94;5121801;28;20232;-69
2021/01/26 11:39:46;;;;;;;23.20;20.90;;;;;;;9.70;49.84;100941.75;5121555;28;20526;-70
2021/01/26 11:42:11;;;;;;;21.10;18.90;;;;;;;9.65;49.51;100948.63;5122254;28;20255;-68
2021/01/26 11:44:37;;;;;;;21.33;19.23;;;;;;;9.24;50.48;100948.75;5121473;28;20208;-68